createdAt,value
2022-10-06T00:02:22.068Z,102230.56
2022-10-06T00:04:48.682Z,102238.00
2022-10-06T00:07:16.140Z,102247.91
2022-10-06T00:09:42.775Z,102252.53
2022-10-06T00:12:09.824Z,102259.31
2022-10-06T00:14:36.889Z,102266.75
2022-10-06T00:17:03.994Z,102262.13
2022-10-06T00:19:30.502Z,102280.28
2022-10-06T00:21:57.009Z,102281.28
2022-10-06T00:24:23.488Z,102283.09
2022-10-06T00:26:49.919Z,102290.34
2022-10-06T00:29:16.388Z,102299.13
2022-10-06T00:31:43.734Z,102303.75
2022-10-06T00:34:10.281Z,102310.34
2022-10-06T00:36:37.293Z,102319.44
2022-10-06T00:39:03.863Z,102326.84
2022-10-06T00:41:30.426Z,102323.06
2022-10-06T00:43:58.702Z,102323.72
2022-10-06T00:46:45.238Z,102331.63
2022-10-06T00:49:12.133Z,102331.13
2022-10-06T00:51:42.290Z,102348.13
2022-10-06T00:54:09.153Z,102356.34
2022-10-06T00:56:38.229Z,102357.53
2022-10-06T00:59:08.696Z,102357.84
2022-10-06T01:01:36.506Z,102359.97
2022-10-06T01:04:09.508Z,102370.34
2022-10-06T01:06:49.887Z,102373.47
2022-10-06T01:09:18.361Z,102376.44
2022-10-06T01:11:48.165Z,102381.19
2022-10-06T01:14:15.094Z,102386.66
2022-10-06T01:16:45.823Z,102386.78
2022-10-06T01:19:31.802Z,102397.34
2022-10-06T01:22:01.859Z,102396.84
2022-10-06T01:24:28.663Z,102399.09
2022-10-06T01:26:57.144Z,102408.97
2022-10-06T01:29:24.725Z,102418.19
2022-10-06T01:31:51.334Z,102413.69
2022-10-06T01:34:17.869Z,102423.75
2022-10-06T01:36:44.388Z,102426.56
2022-10-06T01:39:10.883Z,102435.06
2022-10-06T01:41:37.348Z,102443.59
2022-10-06T01:44:04.060Z,102432.38
2022-10-06T01:46:30.936Z,102431.69
2022-10-06T01:48:57.548Z,102425.78
2022-10-06T01:51:24.094Z,102433.81
2022-10-06T01:53:50.597Z,102432.63
2022-10-06T01:56:17.260Z,102445.31
2022-10-06T01:58:43.773Z,102448.25
2022-10-06T02:01:10.425Z,102445.09
2022-10-06T02:03:38.910Z,102457.75
2022-10-06T02:06:06.502Z,102450.13
2022-10-06T02:08:33.296Z,102459.16
2022-10-06T02:11:05.329Z,102465.72
2022-10-06T02:13:32.101Z,102470.47
2022-10-06T02:15:58.615Z,102479.53
2022-10-06T02:18:25.652Z,102484.41
2022-10-06T02:20:52.500Z,102485.41
2022-10-06T02:23:18.992Z,102489.16
2022-10-06T02:25:45.545Z,102485.03
2022-10-06T02:28:12.093Z,102492.41
2022-10-06T02:30:38.650Z,102492.84
2022-10-06T02:33:05.244Z,102495.78
2022-10-06T02:35:31.737Z,102492.63
2022-10-06T02:37:58.342Z,102501.81
2022-10-06T02:40:24.884Z,102498.31
2022-10-06T02:42:51.394Z,102513.75
2022-10-06T02:45:17.944Z,102514.88
2022-10-06T02:47:44.492Z,102522.94
2022-10-06T02:50:10.991Z,102518.94
2022-10-06T02:52:41.198Z,102527.94
2022-10-06T02:55:08.735Z,102526.44
2022-10-06T02:57:35.200Z,102537.28
2022-10-06T03:00:01.733Z,102543.50
2022-10-06T03:02:30.832Z,102548.25
2022-10-06T03:04:57.434Z,102551.03
2022-10-06T03:07:24.130Z,102562.69
2022-10-06T03:09:50.654Z,102558.69
2022-10-06T03:12:17.161Z,102567.28
2022-10-06T03:14:43.656Z,102571.03
2022-10-06T03:17:10.116Z,102560.91
2022-10-06T03:19:37.442Z,102571.75
2022-10-06T03:22:05.387Z,102579.91
2022-10-06T03:24:32.516Z,102583.66
2022-10-06T03:26:59.239Z,102576.75
2022-10-06T03:29:25.860Z,102584.88
2022-10-06T03:31:52.445Z,102600.03
2022-10-06T03:34:19.112Z,102593.38
2022-10-06T03:36:45.600Z,102597.13
2022-10-06T03:39:12.030Z,102600.72
2022-10-06T03:41:38.978Z,102606.28
2022-10-06T03:44:06.170Z,102610.16
2022-10-06T03:46:35.155Z,102615.69
2022-10-06T03:49:01.853Z,102611.41
2022-10-06T03:51:39.875Z,102626.50
2022-10-06T03:54:10.495Z,102630.25
2022-10-06T03:56:39.639Z,102633.16
2022-10-06T03:59:08.854Z,102628.88
2022-10-06T04:01:38.319Z,102640.66
2022-10-06T04:04:06.009Z,102638.84
2022-10-06T04:06:35.169Z,102644.09
2022-10-06T04:09:04.609Z,102649.78
2022-10-06T04:11:34.422Z,102658.94
2022-10-06T04:14:03.520Z,102663.38
2022-10-06T04:16:32.663Z,102665.28
2022-10-06T04:19:01.208Z,102666.41
2022-10-06T04:21:29.670Z,102668.06
2022-10-06T04:23:57.623Z,102676.09
2022-10-06T04:26:30.641Z,102683.97
2022-10-06T04:28:57.637Z,102686.75
2022-10-06T04:31:26.810Z,102688.56
2022-10-06T04:33:55.267Z,102694.09
2022-10-06T04:36:27.162Z,102691.63
2022-10-06T04:38:58.950Z,102697.81
2022-10-06T04:41:31.961Z,102698.81
2022-10-06T04:43:59.410Z,102703.34
2022-10-06T04:46:44.205Z,102705.31
2022-10-06T04:49:17.876Z,102714.28
2022-10-06T04:51:46.389Z,102716.34
2022-10-06T04:54:13.048Z,102726.06
2022-10-06T04:56:39.580Z,102730.75
2022-10-06T04:59:06.104Z,102720.50
2022-10-06T05:01:34.905Z,102726.88
2022-10-06T05:04:03.122Z,102726.16
2022-10-06T05:06:32.231Z,102733.34
2022-10-06T05:09:01.225Z,102739.56
2022-10-06T05:11:28.227Z,102742.47
2022-10-06T05:13:56.885Z,102743.69
2022-10-06T05:16:25.199Z,102751.84
2022-10-06T05:18:51.961Z,102751.16
2022-10-06T05:21:27.782Z,102758.22
2022-10-06T05:23:54.362Z,102762.91
2022-10-06T05:26:23.496Z,102766.63
2022-10-06T05:28:50.331Z,102768.44
2022-10-06T05:31:18.403Z,102765.94
2022-10-06T05:33:45.276Z,102772.41
2022-10-06T05:36:17.631Z,102781.25
2022-10-06T05:38:45.282Z,102792.34
2022-10-06T05:41:14.438Z,102793.56
2022-10-06T05:43:42.185Z,102795.78
2022-10-06T05:46:17.285Z,102796.72
2022-10-06T05:48:48.119Z,102805.44
2022-10-06T05:51:15.297Z,102798.66
2022-10-06T05:53:43.084Z,102804.75
2022-10-06T05:56:17.457Z,102813.72
2022-10-06T05:58:45.962Z,102818.84
2022-10-06T06:01:19.628Z,102820.66
2022-10-06T06:03:49.840Z,102820.66
2022-10-06T06:06:22.239Z,102830.06
2022-10-06T06:08:53.312Z,102832.59
2022-10-06T06:11:25.350Z,102837.84
2022-10-06T06:14:44.236Z,102842.81
2022-10-06T06:17:11.548Z,102840.91
2022-10-06T06:19:38.022Z,102850.44
2022-10-06T06:22:04.486Z,102855.59
2022-10-06T06:24:30.966Z,102851.28
2022-10-06T06:26:57.443Z,102851.84
2022-10-06T06:29:24.064Z,102862.13
2022-10-06T06:31:51.075Z,102855.88
2022-10-06T06:34:17.639Z,102862.69
2022-10-06T06:36:46.963Z,102857.44
2022-10-06T06:39:15.173Z,102865.91
2022-10-06T06:41:45.299Z,102868.28
2022-10-06T06:44:12.419Z,102875.09
2022-10-06T06:46:40.342Z,102883.66
2022-10-06T06:49:07.407Z,102885.91
2022-10-06T06:51:35.827Z,102895.34
2022-10-06T06:54:05.123Z,102884.56
2022-10-06T06:56:34.855Z,102895.66
2022-10-06T06:59:10.472Z,102898.03
2022-10-06T07:01:38.974Z,102895.97
2022-10-06T07:04:06.264Z,102906.09
2022-10-06T07:06:32.844Z,102905.00
2022-10-06T07:09:00.545Z,102915.13
2022-10-06T07:11:30.366Z,102918.34
2022-10-06T07:14:01.252Z,102911.03
2022-10-06T07:16:48.403Z,102928.22
2022-10-06T07:19:34.421Z,102926.88
2022-10-06T07:22:23.831Z,102937.00
2022-10-06T07:25:08.336Z,102940.06
2022-10-06T07:27:46.508Z,102936.75
2022-10-06T07:30:19.585Z,102949.41
2022-10-06T07:32:50.960Z,102955.94
2022-10-06T07:35:20.345Z,102962.31
2022-10-06T07:37:47.825Z,102960.88
2022-10-06T07:40:14.975Z,102957.72
2022-10-06T07:42:54.075Z,102967.72
2022-10-06T07:45:45.135Z,102978.41
2022-10-06T07:48:14.806Z,102986.47
2022-10-06T07:50:42.881Z,102988.44
2022-10-06T07:53:09.530Z,102991.22
2022-10-06T07:55:39.783Z,102991.94
2022-10-06T07:58:17.847Z,102994.72
2022-10-06T08:00:46.131Z,103003.88
2022-10-06T08:03:18.068Z,103005.00
2022-10-06T08:05:50.183Z,103003.47
2022-10-06T08:08:17.564Z,103002.22
2022-10-06T08:10:51.687Z,102999.88
2022-10-06T08:13:18.249Z,103001.25
2022-10-06T08:15:44.770Z,103006.00
2022-10-06T08:18:27.243Z,103003.63
2022-10-06T08:20:58.753Z,103009.31
2022-10-06T08:23:25.942Z,103006.78
2022-10-06T08:25:54.349Z,103018.47
2022-10-06T08:28:22.269Z,103020.53
2022-10-06T08:30:51.428Z,103028.59
2022-10-06T08:33:21.268Z,103016.50
2022-10-06T08:35:48.165Z,103028.03
2022-10-06T08:38:14.751Z,103034.56
2022-10-06T08:40:43.847Z,103036.31
2022-10-06T08:43:18.975Z,103040.50
2022-10-06T08:45:47.604Z,103039.38
2022-10-06T08:48:19.854Z,103042.69
2022-10-06T08:51:05.044Z,103052.69
2022-10-06T08:53:46.995Z,103059.91
2022-10-06T08:56:19.662Z,103067.81
2022-10-06T08:58:52.688Z,103062.25
2022-10-06T09:01:26.630Z,103062.63
2022-10-06T09:03:58.392Z,103064.28
2022-10-06T09:06:43.436Z,103069.66
2022-10-06T09:09:25.255Z,103085.66
2022-10-06T09:11:54.710Z,103070.47
2022-10-06T09:14:42.419Z,103079.63
2022-10-06T09:17:18.990Z,103077.38
2022-10-06T09:19:51.333Z,103090.47
2022-10-06T09:22:23.304Z,103081.38
2022-10-06T09:24:57.420Z,103078.59
2022-10-06T09:27:33.758Z,103093.28
2022-10-06T09:30:01.590Z,103087.00
2022-10-06T09:32:30.727Z,103094.38
2022-10-06T09:35:02.678Z,103095.97
2022-10-06T09:37:29.179Z,103096.34
2022-10-06T09:39:56.059Z,103092.84
2022-10-06T09:42:29.526Z,103092.84
2022-10-06T09:45:04.002Z,103098.06
2022-10-06T09:47:37.056Z,103098.97
2022-10-06T09:50:12.655Z,103105.94
2022-10-06T09:52:40.806Z,103110.53
2022-10-06T09:55:14.963Z,103097.81
2022-10-06T09:58:25.850Z,103109.97
2022-10-06T10:00:55.933Z,103105.16
2022-10-06T10:03:26.100Z,103111.28
2022-10-06T10:05:54.955Z,103113.84
2022-10-06T10:08:24.596Z,103109.38
2022-10-06T10:11:32.139Z,103109.50
2022-10-06T10:13:59.802Z,103112.47
2022-10-06T10:16:34.513Z,103120.28
2022-10-06T10:19:03.240Z,103109.97
2022-10-06T10:21:33.618Z,103111.78
2022-10-06T10:24:03.286Z,103113.47
2022-10-06T10:26:57.137Z,103104.16
2022-10-06T10:29:33.037Z,103098.81
2022-10-06T10:32:15.411Z,103107.63
2022-10-06T10:34:42.781Z,103102.28
2022-10-06T10:37:14.017Z,103113.63
2022-10-06T10:39:50.112Z,103115.31
2022-10-06T10:42:39.712Z,103113.66
2022-10-06T10:45:34.428Z,103109.34
2022-10-06T10:48:05.647Z,103113.69
2022-10-06T10:50:39.226Z,103116.66
2022-10-06T10:53:22.587Z,103125.56
2022-10-06T10:55:51.071Z,103126.81
2022-10-06T10:58:33.170Z,103132.25
2022-10-06T11:01:29.634Z,103136.13
2022-10-06T11:03:58.379Z,103132.81
2022-10-06T11:06:55.671Z,103129.34
2022-10-06T11:09:29.018Z,103125.72
2022-10-06T11:12:34.303Z,103127.75
2022-10-06T11:15:17.041Z,103143.38
2022-10-06T11:17:50.324Z,103144.69
2022-10-06T11:20:44.118Z,103143.72
2022-10-06T11:23:22.626Z,103151.19
2022-10-06T11:26:09.799Z,103143.75
2022-10-06T11:28:55.629Z,103143.28
2022-10-06T11:31:42.402Z,103139.63
2022-10-06T11:34:10.635Z,103139.44
2022-10-06T11:36:47.970Z,103127.34
2022-10-06T11:39:22.513Z,103139.81
2022-10-06T11:41:57.128Z,103133.78
2022-10-06T11:44:31.465Z,103138.63
2022-10-06T11:47:02.558Z,103128.28
2022-10-06T11:49:28.963Z,103128.78
2022-10-06T11:52:15.646Z,103131.06
2022-10-06T11:54:48.318Z,103131.91
2022-10-06T11:57:30.206Z,103125.22
2022-10-06T12:00:17.768Z,103128.91
2022-10-06T12:02:46.964Z,103127.06
2022-10-06T12:05:45.864Z,103127.56
2022-10-06T12:08:00.632Z,103124.84
2022-10-06T12:10:30.163Z,103119.34
2022-10-06T12:14:26.278Z,103121.66
2022-10-06T12:19:54.103Z,103130.38
2022-10-06T12:22:37.427Z,103129.63
2022-10-06T12:25:16.410Z,103120.28
2022-10-06T12:28:18.461Z,103115.63
2022-10-06T12:31:22.887Z,103114.09
2022-10-06T12:33:50.477Z,103114.09
2022-10-06T12:36:26.844Z,103115.41
2022-10-06T12:39:20.384Z,103124.94
2022-10-06T12:42:00.833Z,103122.25
2022-10-06T12:44:37.484Z,103121.59
2022-10-06T12:47:10.199Z,103109.97
2022-10-06T12:49:46.081Z,103112.69
2022-10-06T12:52:46.059Z,103120.56
2022-10-06T12:55:21.372Z,103114.25
2022-10-06T12:57:52.366Z,103114.47
2022-10-06T13:02:54.381Z,103115.38
2022-10-06T13:05:20.991Z,103112.13
2022-10-06T13:08:02.711Z,103121.88
2022-10-06T13:10:30.698Z,103118.41
2022-10-06T13:12:58.011Z,103111.19
2022-10-06T13:15:29.574Z,103117.69
2022-10-06T13:18:08.176Z,103111.38
2022-10-06T13:20:36.611Z,103110.03
2022-10-06T13:23:23.397Z,103113.16
2022-10-06T13:26:02.112Z,103115.63
2022-10-06T13:28:43.880Z,103112.50
2022-10-06T13:31:34.908Z,103112.97
2022-10-06T13:34:05.789Z,103116.09
2022-10-06T13:36:41.403Z,103121.25
2022-10-06T13:39:18.006Z,103122.94
2022-10-06T13:41:51.707Z,103108.78
2022-10-06T13:44:18.775Z,103115.09
2022-10-06T13:46:54.208Z,103108.41
2022-10-06T13:49:40.783Z,103109.00
2022-10-06T13:52:16.484Z,103112.13
2022-10-06T13:54:58.056Z,103116.44
2022-10-06T13:58:08.506Z,103117.34
2022-10-06T14:00:58.026Z,103124.72
2022-10-06T14:06:19.012Z,103118.06
2022-10-06T14:08:52.452Z,103121.72
2022-10-06T14:11:28.098Z,103122.63
2022-10-06T14:13:56.325Z,103119.66
2022-10-06T14:16:27.776Z,103120.84
2022-10-06T14:19:05.496Z,103121.16
2022-10-06T14:21:31.980Z,103118.84
2022-10-06T14:23:59.974Z,103124.31
2022-10-06T14:26:31.098Z,103121.03
2022-10-06T14:28:58.947Z,103121.91
2022-10-06T14:31:27.760Z,103118.44
2022-10-06T14:33:56.953Z,103118.94
2022-10-06T14:36:25.765Z,103124.97
2022-10-06T14:38:52.292Z,103124.16
2022-10-06T14:41:19.905Z,103113.38
2022-10-06T14:43:47.688Z,103111.53
2022-10-06T14:46:15.569Z,103114.34
2022-10-06T14:48:42.204Z,103112.06
2022-10-06T14:51:09.634Z,103114.97
2022-10-06T14:53:39.121Z,103109.81
2022-10-06T14:56:09.114Z,103104.66
2022-10-06T14:58:40.220Z,103105.50
2022-10-06T15:01:07.747Z,103105.19
2022-10-06T15:03:36.983Z,103098.88
2022-10-06T15:06:27.543Z,103106.84
2022-10-06T15:08:56.535Z,103102.38
2022-10-06T15:11:25.562Z,103093.22
2022-10-06T15:13:54.872Z,103093.13
2022-10-06T15:16:24.634Z,103085.47
2022-10-06T15:18:52.153Z,103098.44
2022-10-06T15:21:19.583Z,103100.78
2022-10-06T15:23:48.037Z,103103.16
2022-10-06T15:26:33.131Z,103098.81
2022-10-06T15:29:05.829Z,103081.38
2022-10-06T15:31:38.288Z,103090.53
2022-10-06T15:34:07.270Z,103095.34
2022-10-06T15:36:39.469Z,103096.84
2022-10-06T15:39:09.013Z,103091.41
2022-10-06T15:41:36.844Z,103095.56
2022-10-06T15:44:05.047Z,103093.56
2022-10-06T15:46:37.206Z,103092.09
2022-10-06T15:49:06.607Z,103100.91
2022-10-06T15:51:38.425Z,103093.59
2022-10-06T15:54:05.489Z,103092.09
2022-10-06T15:56:32.135Z,103095.09
2022-10-06T15:58:59.663Z,103084.16
2022-10-06T16:01:28.176Z,103087.31
2022-10-06T16:03:54.863Z,103088.16
2022-10-06T16:06:30.262Z,103098.56
2022-10-06T16:08:56.792Z,103091.44
2022-10-06T16:11:23.324Z,103100.03
2022-10-06T16:13:51.775Z,103096.06
2022-10-06T16:16:18.303Z,103097.72
2022-10-06T16:18:44.865Z,103101.19
2022-10-06T16:21:11.381Z,103098.03
2022-10-06T16:23:37.829Z,103090.19
2022-10-06T16:26:04.517Z,103098.66
2022-10-06T16:28:31.053Z,103092.34
2022-10-06T16:30:57.697Z,103099.78
2022-10-06T16:33:24.275Z,103098.44
2022-10-06T16:35:58.578Z,103101.91
2022-10-06T16:38:25.587Z,103108.81
2022-10-06T16:41:01.715Z,103104.31
2022-10-06T16:43:32.249Z,103108.44
2022-10-06T16:46:02.285Z,103115.53
2022-10-06T16:48:34.793Z,103117.09
2022-10-06T16:51:03.172Z,103117.06
2022-10-06T16:53:38.907Z,103109.72
2022-10-06T16:56:07.254Z,103106.03
2022-10-06T16:58:39.144Z,103111.00
2022-10-06T17:01:06.279Z,103115.25
2022-10-06T17:03:33.270Z,103108.69
2022-10-06T17:06:16.976Z,103114.91
2022-10-06T17:08:44.784Z,103115.31
2022-10-06T17:11:15.866Z,103112.13
2022-10-06T17:13:47.412Z,103112.53
2022-10-06T17:16:17.337Z,103115.09
2022-10-06T17:18:47.714Z,103111.69
2022-10-06T17:21:39.576Z,103110.47
2022-10-06T17:24:03.210Z,103106.50
2022-10-06T17:26:32.372Z,103106.41
2022-10-06T17:29:02.133Z,103109.25
2022-10-06T17:31:35.762Z,103106.13
2022-10-06T17:34:04.899Z,103107.41
2022-10-06T17:36:31.650Z,103103.91
2022-10-06T17:39:03.828Z,103102.81
2022-10-06T17:41:33.357Z,103099.25
2022-10-06T17:44:06.364Z,103091.63
2022-10-06T17:46:37.579Z,103099.53
2022-10-06T17:49:07.566Z,103096.91
2022-10-06T17:51:35.901Z,103098.03
2022-10-06T17:54:05.370Z,103096.25
2022-10-06T17:56:34.567Z,103102.13
2022-10-06T17:59:05.309Z,103102.56
2022-10-06T18:01:33.386Z,103100.63
2022-10-06T18:04:03.336Z,103096.91
2022-10-06T18:06:32.555Z,103096.50
2022-10-06T18:09:00.924Z,103093.44
2022-10-06T18:11:43.683Z,103096.94
2022-10-06T18:14:17.372Z,103084.41
2022-10-06T18:16:58.828Z,103086.81
2022-10-06T18:19:33.813Z,103082.81
2022-10-06T18:22:03.398Z,103088.75
2022-10-06T18:24:31.374Z,103090.84
2022-10-06T18:27:00.082Z,103086.66
2022-10-06T18:29:33.632Z,103093.38
2022-10-06T18:33:44.836Z,103088.47
2022-10-06T18:37:34.854Z,103092.38
2022-10-06T18:40:05.446Z,103089.34
2022-10-06T18:42:31.895Z,103088.63
2022-10-06T18:45:16.762Z,103085.41
2022-10-06T18:48:01.731Z,103089.59
2022-10-06T18:50:28.421Z,103086.69
2022-10-06T18:52:56.870Z,103085.16
2022-10-06T18:55:23.555Z,103083.63
2022-10-06T18:57:50.586Z,103083.91
2022-10-06T19:00:17.472Z,103085.97
2022-10-06T19:02:48.260Z,103085.41
2022-10-06T19:05:17.262Z,103077.50
2022-10-06T19:07:44.016Z,103075.16
2022-10-06T19:10:11.077Z,103078.19
2022-10-06T19:12:37.543Z,103082.91
2022-10-06T19:15:04.294Z,103081.41
2022-10-06T19:17:30.732Z,103085.16
2022-10-06T19:19:57.218Z,103083.59
2022-10-06T19:22:26.485Z,103075.00
2022-10-06T19:24:53.031Z,103073.63
2022-10-06T19:27:24.995Z,103086.53
2022-10-06T19:29:54.409Z,103083.59
2022-10-06T19:32:26.274Z,103086.38
2022-10-06T19:34:54.913Z,103082.03
2022-10-06T19:37:21.416Z,103089.53
2022-10-06T19:39:50.139Z,103084.69
2022-10-06T19:42:37.336Z,103084.13
2022-10-06T19:45:06.310Z,103082.56
2022-10-06T19:47:32.878Z,103084.50
2022-10-06T19:50:03.720Z,103093.81
2022-10-06T19:52:32.757Z,103090.44
2022-10-06T19:55:00.725Z,103091.44
2022-10-06T19:57:29.154Z,103094.59
2022-10-06T19:59:55.504Z,103087.91
2022-10-06T20:02:23.200Z,103097.06
2022-10-06T20:04:50.504Z,103092.88
2022-10-06T20:07:17.271Z,103091.38
2022-10-06T20:09:44.105Z,103088.16
2022-10-06T20:12:10.569Z,103092.03
2022-10-06T20:14:37.113Z,103088.00
2022-10-06T20:17:03.681Z,103088.00
2022-10-06T20:19:31.005Z,103094.47
2022-10-06T20:21:57.850Z,103085.16
2022-10-06T20:24:24.798Z,103083.75
2022-10-06T20:26:52.942Z,103086.66
2022-10-06T20:29:26.483Z,103086.06
2022-10-06T20:31:55.244Z,103086.34
2022-10-06T20:34:31.585Z,103084.59
2022-10-06T20:37:00.062Z,103083.88
2022-10-06T20:39:45.225Z,103088.31
2022-10-06T20:42:15.257Z,103086.78
2022-10-06T20:44:43.028Z,103089.66
2022-10-06T20:47:11.342Z,103086.72
2022-10-06T20:49:37.732Z,103080.75
2022-10-06T20:52:05.539Z,103088.91
2022-10-06T20:54:35.117Z,103083.78
2022-10-06T20:57:04.134Z,103083.06
2022-10-06T20:59:31.288Z,103079.72
2022-10-06T21:02:00.885Z,103078.44
2022-10-06T21:04:27.574Z,103073.31
2022-10-06T21:06:54.146Z,103070.78
2022-10-06T21:09:20.574Z,103066.16
2022-10-06T21:11:47.673Z,103070.72
2022-10-06T21:14:14.993Z,103061.44
2022-10-06T21:16:43.508Z,103066.09
2022-10-06T21:19:14.123Z,103068.84
2022-10-06T21:21:42.327Z,103063.72
2022-10-06T21:24:09.064Z,103066.59
2022-10-06T21:26:36.815Z,103064.13
2022-10-06T21:29:03.356Z,103067.00
2022-10-06T21:31:30.393Z,103061.38
2022-10-06T21:33:56.988Z,103069.16
2022-10-06T21:36:25.986Z,103066.78
2022-10-06T21:38:55.001Z,103060.81
2022-10-06T21:41:30.345Z,103056.63
2022-10-06T21:44:04.345Z,103049.69
2022-10-06T21:46:36.521Z,103043.47
2022-10-06T21:49:06.589Z,103043.47
2022-10-06T21:51:33.783Z,103042.88
2022-10-06T21:54:01.201Z,103041.09
2022-10-06T21:56:30.128Z,103039.66
2022-10-06T21:58:57.417Z,103035.28
2022-10-06T22:01:33.183Z,103022.38
2022-10-06T22:04:00.398Z,103024.28
2022-10-06T22:06:29.757Z,103020.09
2022-10-06T22:08:57.616Z,103011.50
2022-10-06T22:11:27.168Z,103016.03
2022-10-06T22:13:56.702Z,103009.13
2022-10-06T22:16:24.927Z,103005.78
2022-10-06T22:18:52.007Z,103005.22
2022-10-06T22:21:27.297Z,103001.16
2022-10-06T22:24:02.609Z,102996.16
2022-10-06T22:26:30.548Z,102997.81
2022-10-06T22:28:58.174Z,102993.16
2022-10-06T22:31:26.764Z,102993.97
2022-10-06T22:34:00.888Z,102989.56
2022-10-06T22:36:28.429Z,102984.53
2022-10-06T22:38:55.811Z,102989.09
2022-10-06T22:41:22.687Z,102978.00
2022-10-06T22:43:52.235Z,102978.25
2022-10-06T22:46:18.756Z,102974.19
2022-10-06T22:48:45.257Z,102972.88
2022-10-06T22:51:11.701Z,102978.28
2022-10-06T22:53:38.103Z,102971.72
2022-10-06T22:56:04.585Z,102972.94
2022-10-06T22:58:31.120Z,102973.06
2022-10-06T23:00:57.785Z,102963.53
2022-10-06T23:03:24.704Z,102966.16
2022-10-06T23:05:59.924Z,102965.41
2022-10-06T23:08:30.180Z,102953.50
2022-10-06T23:11:10.163Z,102947.16
2022-10-06T23:13:37.133Z,102946.19
2022-10-06T23:16:07.827Z,102940.13
2022-10-06T23:18:37.121Z,102937.59
2022-10-06T23:21:09.027Z,102932.34
2022-10-06T23:23:35.574Z,102935.34
2022-10-06T23:26:11.757Z,102940.72
2022-10-06T23:28:38.922Z,102938.59
2022-10-06T23:31:08.037Z,102929.97
2022-10-06T23:33:35.548Z,102931.19
2022-10-06T23:36:05.400Z,102928.47
2022-10-06T23:38:31.973Z,102924.03
2022-10-06T23:40:58.526Z,102922.47
2022-10-06T23:43:24.999Z,102921.66
2022-10-06T23:45:51.522Z,102920.00
2022-10-06T23:48:18.274Z,102923.56
2022-10-06T23:50:58.640Z,102922.72
2022-10-06T23:53:25.136Z,102916.78
2022-10-06T23:55:51.655Z,102925.47
2022-10-06T23:58:19.111Z,102922.41
